createdAt,value
2022-09-03T00:00:04.873Z,19.38
2022-09-03T00:00:35.174Z,19.38
2022-09-03T00:00:52.732Z,19.38
2022-09-03T00:01:24.621Z,19.27
2022-09-03T00:01:42.396Z,19.27
2022-09-03T00:02:13.142Z,19.27
2022-09-03T00:02:36.831Z,19.27
2022-09-03T00:03:00.611Z,19.38
2022-09-03T00:03:32.803Z,19.38
2022-09-03T00:04:04.678Z,19.38
2022-09-03T00:04:35.940Z,19.38
2022-09-03T00:04:52.654Z,19.50
2022-09-03T00:05:24.687Z,19.50
2022-09-03T00:05:42.442Z,19.38
2022-09-03T00:06:12.971Z,19.38
2022-09-03T00:06:36.286Z,19.38
2022-09-03T00:07:00.602Z,19.38
2022-09-03T00:07:32.498Z,19.38
2022-09-03T00:08:04.611Z,19.38
2022-09-03T00:08:35.757Z,19.38
2022-09-03T00:08:53.461Z,19.38
2022-09-03T00:09:24.571Z,19.38
2022-09-03T00:09:42.784Z,19.38
2022-09-03T00:10:12.676Z,19.27
2022-09-03T00:10:35.140Z,19.27
2022-09-03T00:11:00.617Z,19.27
2022-09-03T00:11:32.772Z,19.27
2022-09-03T00:12:05.504Z,19.27
2022-09-03T00:12:35.175Z,19.27
2022-09-03T00:12:52.722Z,19.27
2022-09-03T00:13:24.598Z,19.38
2022-09-03T00:13:42.423Z,19.38
2022-09-03T00:14:14.641Z,19.38
2022-09-03T00:14:35.190Z,19.38
2022-09-03T00:15:03.949Z,19.38
2022-09-03T00:15:32.699Z,19.38
2022-09-03T00:16:04.753Z,19.38
2022-09-03T00:16:35.249Z,19.38
2022-09-03T00:16:52.806Z,19.38
2022-09-03T00:17:25.298Z,19.38
2022-09-03T00:17:42.669Z,19.38
2022-09-03T00:18:13.441Z,19.38
2022-09-03T00:18:35.188Z,19.38
2022-09-03T00:19:01.412Z,19.27
2022-09-03T00:19:32.599Z,19.27
2022-09-03T00:20:05.781Z,19.27
2022-09-03T00:20:35.154Z,19.27
2022-09-03T00:20:53.517Z,19.27
2022-09-03T00:21:24.700Z,19.27
2022-09-03T00:21:42.901Z,19.22
2022-09-03T00:22:13.183Z,19.22
2022-09-03T00:22:37.187Z,19.22
2022-09-03T00:23:00.522Z,19.22
2022-09-03T00:23:34.614Z,19.22
2022-09-03T00:24:05.054Z,19.22
2022-09-03T00:24:35.228Z,19.22
2022-09-03T00:24:52.754Z,19.22
2022-09-03T00:25:24.997Z,19.22
2022-09-03T00:25:42.452Z,19.22
2022-09-03T00:26:12.723Z,19.22
2022-09-03T00:26:35.217Z,19.22
2022-09-03T00:27:00.704Z,19.22
2022-09-03T00:27:34.517Z,19.22
2022-09-03T00:28:04.826Z,19.22
2022-09-03T00:28:36.843Z,19.22
2022-09-03T00:29:09.034Z,19.22
2022-09-03T00:29:35.224Z,19.22
2022-09-03T00:29:57.815Z,19.22
2022-09-03T00:30:28.735Z,19.22
2022-09-03T00:31:00.639Z,19.22
2022-09-03T00:31:32.686Z,19.22
2022-09-03T00:32:04.830Z,19.22
2022-09-03T00:32:35.887Z,19.22
2022-09-03T00:32:52.630Z,19.22
2022-09-03T00:33:24.599Z,19.22
2022-09-03T00:33:42.365Z,19.22
2022-09-03T00:34:12.764Z,19.22
2022-09-03T00:34:38.977Z,19.22
2022-09-03T00:35:00.811Z,19.22
2022-09-03T00:35:32.727Z,19.22
2022-09-03T00:36:04.781Z,19.22
2022-09-03T00:36:35.244Z,19.22
2022-09-03T00:36:53.449Z,19.22
2022-09-03T00:37:25.337Z,19.22
2022-09-03T00:37:43.155Z,19.22
2022-09-03T00:38:12.747Z,19.22
2022-09-03T00:38:36.094Z,19.22
2022-09-03T00:39:00.720Z,19.22
2022-09-03T00:39:32.697Z,19.22
2022-09-03T00:40:05.010Z,19.22
2022-09-03T00:40:35.274Z,19.22
2022-09-03T00:40:52.979Z,19.11
2022-09-03T00:41:24.633Z,19.11
2022-09-03T00:41:42.429Z,19.11
2022-09-03T00:42:12.758Z,19.00
2022-09-03T00:42:35.208Z,19.00
2022-09-03T00:43:00.613Z,19.00
2022-09-03T00:43:32.565Z,19.00
2022-09-03T00:44:04.808Z,19.00
2022-09-03T00:44:35.188Z,19.00
2022-09-03T00:44:52.819Z,19.00
2022-09-03T00:45:25.423Z,19.00
2022-09-03T00:45:42.814Z,19.00
2022-09-03T00:46:13.586Z,19.00
2022-09-03T00:46:36.067Z,19.00
2022-09-03T00:47:00.581Z,19.00
2022-09-03T00:47:32.607Z,19.11
2022-09-03T00:48:05.279Z,19.11
2022-09-03T00:48:35.174Z,19.11
2022-09-03T00:48:52.851Z,19.11
2022-09-03T00:49:24.766Z,19.11
2022-09-03T00:49:42.598Z,19.11
2022-09-03T00:50:13.454Z,19.11
2022-09-03T00:50:35.638Z,19.11
2022-09-03T00:51:02.001Z,19.11
2022-09-03T00:51:32.611Z,19.11
2022-09-03T00:52:05.569Z,19.00
2022-09-03T00:52:35.692Z,19.00
2022-09-03T00:53:08.141Z,19.00
2022-09-03T00:53:25.235Z,19.00
2022-09-03T00:53:42.643Z,19.00
2022-09-03T00:54:12.895Z,19.00
2022-09-03T00:54:39.140Z,19.00
2022-09-03T00:55:00.739Z,19.00
2022-09-03T00:55:32.648Z,19.00
2022-09-03T00:56:05.231Z,19.00
2022-09-03T00:56:35.173Z,19.00
2022-09-03T00:56:52.526Z,19.00
2022-09-03T00:57:24.558Z,19.00
2022-09-03T00:57:43.702Z,19.00
2022-09-03T00:58:12.615Z,19.00
2022-09-03T00:58:35.338Z,19.00
2022-09-03T00:59:00.507Z,18.88
2022-09-03T00:59:32.330Z,18.88
2022-09-03T01:00:05.858Z,18.88
2022-09-03T01:00:36.091Z,18.88
2022-09-03T01:01:09.479Z,18.77
2022-09-03T01:01:35.273Z,18.77
2022-09-03T01:01:56.487Z,18.77
2022-09-03T01:02:28.716Z,18.77
2022-09-03T01:03:00.613Z,18.77
2022-09-03T01:03:32.431Z,18.77
2022-09-03T01:04:04.507Z,18.77
2022-09-03T01:04:35.141Z,18.77
2022-09-03T01:04:52.862Z,18.77
2022-09-03T01:05:24.732Z,18.77
2022-09-03T01:05:42.341Z,18.77
2022-09-03T01:06:12.840Z,18.77
2022-09-03T01:06:36.881Z,18.77
2022-09-03T01:07:00.533Z,18.77
2022-09-03T01:07:32.426Z,18.77
2022-09-03T01:08:04.578Z,18.77
2022-09-03T01:08:36.220Z,18.77
2022-09-03T01:09:08.572Z,18.77
2022-09-03T01:09:35.152Z,18.77
2022-09-03T01:09:56.397Z,18.72
2022-09-03T01:10:28.470Z,18.61
2022-09-03T01:11:00.422Z,18.50
2022-09-03T01:11:32.440Z,18.50
2022-09-03T01:12:04.472Z,18.50
2022-09-03T01:12:35.095Z,18.50
2022-09-03T01:12:52.543Z,18.50
2022-09-03T01:13:24.511Z,18.50
2022-09-03T01:13:42.044Z,18.50
2022-09-03T01:14:12.552Z,18.50
2022-09-03T01:14:35.639Z,18.50
2022-09-03T01:15:01.893Z,18.50
2022-09-03T01:15:32.503Z,18.50
2022-09-03T01:16:04.611Z,18.50
2022-09-03T01:16:35.229Z,18.50
2022-09-03T01:16:53.063Z,18.38
2022-09-03T01:17:24.598Z,18.38
2022-09-03T01:17:42.303Z,18.27
2022-09-03T01:18:12.621Z,18.27
2022-09-03T01:18:35.150Z,18.27
2022-09-03T01:19:02.350Z,18.22
2022-09-03T01:19:33.632Z,18.22
2022-09-03T01:20:05.819Z,18.22
2022-09-03T01:20:35.080Z,18.22
2022-09-03T01:20:52.547Z,18.27
2022-09-03T01:21:24.496Z,18.27
2022-09-03T01:21:42.133Z,18.27
2022-09-03T01:22:12.513Z,18.38
2022-09-03T01:22:35.133Z,18.38
2022-09-03T01:23:00.415Z,18.50
2022-09-03T01:23:34.523Z,18.50
2022-09-03T01:24:04.465Z,18.50
2022-09-03T01:24:35.123Z,18.38
2022-09-03T01:24:52.547Z,18.38
2022-09-03T01:25:25.104Z,18.38
2022-09-03T01:25:56.402Z,18.38
2022-09-03T01:26:28.411Z,18.38
2022-09-03T01:27:00.445Z,18.50
2022-09-03T01:27:32.453Z,18.50
2022-09-03T01:28:04.709Z,18.61
2022-09-03T01:28:37.229Z,18.61
2022-09-03T01:29:08.522Z,18.61
2022-09-03T01:29:39.710Z,18.61
2022-09-03T01:29:59.064Z,18.61
2022-09-03T01:30:29.201Z,18.61
2022-09-03T01:31:01.768Z,18.61
2022-09-03T01:31:32.525Z,18.61
2022-09-03T01:32:04.487Z,18.61
2022-09-03T01:32:35.126Z,18.61
2022-09-03T01:32:52.594Z,18.50
2022-09-03T01:33:24.419Z,18.50
2022-09-03T01:33:43.120Z,18.50
2022-09-03T01:34:12.573Z,18.50
2022-09-03T01:34:35.947Z,18.38
2022-09-03T01:35:00.508Z,18.38
2022-09-03T01:35:33.049Z,18.38
2022-09-03T01:36:04.525Z,18.38
2022-09-03T01:36:35.141Z,18.38
2022-09-03T01:36:52.565Z,18.27
2022-09-03T01:37:24.395Z,18.27
2022-09-03T01:37:41.967Z,18.27
2022-09-03T01:38:12.589Z,18.27
2022-09-03T01:38:36.894Z,18.27
2022-09-03T01:39:00.446Z,18.27
2022-09-03T01:39:32.606Z,18.38
2022-09-03T01:40:04.613Z,18.50
2022-09-03T01:40:36.332Z,18.50
2022-09-03T01:41:08.523Z,18.61
2022-09-03T01:41:35.141Z,18.61
2022-09-03T01:41:56.327Z,18.61
2022-09-03T01:42:28.437Z,18.61
2022-09-03T01:43:00.539Z,18.61
2022-09-03T01:43:34.065Z,18.61
2022-09-03T01:44:04.478Z,18.61
2022-09-03T01:44:35.940Z,18.61
2022-09-03T01:44:53.045Z,18.61
2022-09-03T01:45:24.622Z,18.61
2022-09-03T01:45:50.192Z,18.61
2022-09-03T01:46:13.067Z,18.72
2022-09-03T01:46:37.174Z,18.72
2022-09-03T01:47:01.512Z,18.72
2022-09-03T01:47:33.462Z,18.72
2022-09-03T01:48:04.633Z,18.72
2022-09-03T01:48:35.631Z,18.72
2022-09-03T01:48:52.544Z,18.72
2022-09-03T01:49:24.450Z,18.72
2022-09-03T01:49:43.104Z,18.72
2022-09-03T01:50:12.601Z,18.72
2022-09-03T01:50:36.032Z,18.61
2022-09-03T01:51:00.477Z,18.61
2022-09-03T01:51:32.727Z,18.61
2022-09-03T01:52:04.495Z,18.61
2022-09-03T01:52:36.787Z,18.61
2022-09-03T01:53:11.710Z,18.50
2022-09-03T01:53:35.300Z,18.50
2022-09-03T01:53:56.373Z,18.50
2022-09-03T01:54:28.415Z,18.50
2022-09-03T01:55:00.577Z,18.61
2022-09-03T01:55:32.615Z,18.61
2022-09-03T01:56:05.046Z,18.61
2022-09-03T01:56:35.140Z,18.61
2022-09-03T01:56:52.703Z,18.61
2022-09-03T01:57:35.396Z,18.61
2022-09-03T01:57:42.352Z,18.61
2022-09-03T01:58:12.656Z,18.72
2022-09-03T01:58:35.107Z,18.72
2022-09-03T01:59:00.407Z,18.72
2022-09-03T01:59:32.482Z,18.72
2022-09-03T02:00:04.895Z,18.72
2022-09-03T02:00:35.125Z,18.72
2022-09-03T02:00:52.848Z,18.72
2022-09-03T02:01:24.514Z,18.77
2022-09-03T02:01:42.820Z,18.77
2022-09-03T02:02:13.425Z,18.77
2022-09-03T02:02:35.194Z,18.77
2022-09-03T02:03:00.425Z,18.77
2022-09-03T02:03:32.482Z,18.77
2022-09-03T02:04:04.588Z,18.77
2022-09-03T02:04:35.128Z,18.77
2022-09-03T02:04:53.683Z,18.77
2022-09-03T02:05:24.509Z,18.77
2022-09-03T02:05:41.873Z,18.77
2022-09-03T02:06:13.199Z,18.77
2022-09-03T02:06:35.113Z,18.77
2022-09-03T02:07:00.342Z,18.77
2022-09-03T02:07:32.492Z,18.77
2022-09-03T02:08:04.474Z,18.77
2022-09-03T02:08:35.109Z,18.77
2022-09-03T02:08:52.568Z,18.77
2022-09-03T02:09:24.485Z,18.77
2022-09-03T02:09:41.844Z,18.77
2022-09-03T02:10:12.546Z,18.77
2022-09-03T02:10:35.972Z,18.77
2022-09-03T02:11:00.351Z,18.77
2022-09-03T02:11:33.303Z,18.77
2022-09-03T02:12:04.435Z,18.77
2022-09-03T02:12:35.765Z,18.77
2022-09-03T02:12:52.508Z,18.77
2022-09-03T02:13:24.468Z,18.77
2022-09-03T02:13:41.788Z,18.77
2022-09-03T02:14:12.628Z,18.72
2022-09-03T02:14:35.114Z,18.72
2022-09-03T02:15:00.660Z,18.72
2022-09-03T02:15:32.493Z,18.72
2022-09-03T02:16:04.471Z,18.72
2022-09-03T02:16:35.228Z,18.72
2022-09-03T02:16:52.604Z,18.77
2022-09-03T02:17:24.411Z,18.77
2022-09-03T02:17:42.678Z,18.77
2022-09-03T02:18:12.838Z,18.77
2022-09-03T02:18:35.151Z,18.77
2022-09-03T02:19:00.374Z,18.77
2022-09-03T02:19:32.476Z,18.77
2022-09-03T02:20:04.445Z,18.77
2022-09-03T02:20:35.877Z,18.77
2022-09-03T02:20:53.697Z,18.77
2022-09-03T02:21:25.210Z,18.77
2022-09-03T02:21:42.617Z,18.77
2022-09-03T02:22:12.767Z,18.77
2022-09-03T02:22:35.179Z,18.77
2022-09-03T02:23:00.367Z,18.77
2022-09-03T02:23:32.502Z,18.77
2022-09-03T02:24:05.220Z,18.77
2022-09-03T02:24:35.063Z,18.77
2022-09-03T02:24:52.591Z,18.77
2022-09-03T02:25:24.517Z,18.77
2022-09-03T02:25:41.936Z,18.77
2022-09-03T02:26:12.940Z,18.77
2022-09-03T02:26:36.048Z,18.77
2022-09-03T02:27:00.436Z,18.77
2022-09-03T02:27:32.562Z,18.77
2022-09-03T02:28:05.301Z,18.72
2022-09-03T02:28:38.305Z,18.72
2022-09-03T02:29:08.521Z,18.72
2022-09-03T02:29:37.978Z,18.72
2022-09-03T02:29:56.357Z,18.72
2022-09-03T02:30:29.554Z,18.77
2022-09-03T02:31:00.415Z,18.77
2022-09-03T02:31:33.257Z,18.77
2022-09-03T02:32:04.464Z,18.77
2022-09-03T02:32:37.415Z,18.77
2022-09-03T02:33:08.486Z,18.72
2022-09-03T02:33:35.171Z,18.72
2022-09-03T02:33:56.362Z,18.72
2022-09-03T02:34:28.458Z,18.72
2022-09-03T02:35:00.527Z,18.72
2022-09-03T02:35:32.545Z,18.61
2022-09-03T02:36:05.407Z,18.61
2022-09-03T02:36:35.869Z,18.61
2022-09-03T02:36:52.674Z,18.61
2022-09-03T02:37:24.454Z,18.61
2022-09-03T02:37:42.642Z,18.61
2022-09-03T02:38:12.630Z,18.61
2022-09-03T02:38:35.894Z,18.72
2022-09-03T02:39:00.558Z,18.72
2022-09-03T02:39:37.364Z,18.61
2022-09-03T02:40:04.792Z,18.61
2022-09-03T02:40:35.694Z,18.61
2022-09-03T02:40:52.533Z,18.61
2022-09-03T02:41:24.577Z,18.61
2022-09-03T02:41:43.106Z,18.61
2022-09-03T02:42:12.870Z,18.61
2022-09-03T02:42:35.176Z,18.61
2022-09-03T02:43:00.472Z,18.61
2022-09-03T02:43:32.542Z,18.61
2022-09-03T02:44:07.784Z,18.61
2022-09-03T02:44:35.129Z,18.61
2022-09-03T02:44:52.650Z,18.61
2022-09-03T02:45:24.635Z,18.61
2022-09-03T02:45:42.905Z,18.61
2022-09-03T02:46:12.924Z,18.61
2022-09-03T02:46:35.764Z,18.50
2022-09-03T02:47:00.384Z,18.50
2022-09-03T02:47:34.087Z,18.50
2022-09-03T02:48:04.422Z,18.50
2022-09-03T02:48:35.700Z,18.50
2022-09-03T02:48:52.746Z,18.50
2022-09-03T02:49:24.690Z,18.50
2022-09-03T02:49:41.903Z,18.50
2022-09-03T02:50:12.761Z,18.50
2022-09-03T02:50:35.174Z,18.50
2022-09-03T02:51:01.456Z,18.50
2022-09-03T02:51:33.224Z,18.50
2022-09-03T02:52:05.979Z,18.50
2022-09-03T02:52:35.071Z,18.50
2022-09-03T02:52:52.976Z,18.50
2022-09-03T02:53:24.455Z,18.50
2022-09-03T02:53:42.702Z,18.50
2022-09-03T02:54:14.996Z,18.38
2022-09-03T02:54:35.181Z,18.38
2022-09-03T02:55:00.444Z,18.38
2022-09-03T02:55:32.624Z,18.38
2022-09-03T02:56:04.378Z,18.38
2022-09-03T02:56:35.990Z,18.38
2022-09-03T02:57:09.082Z,18.50
2022-09-03T02:57:35.195Z,18.50
2022-09-03T02:57:56.331Z,18.50
2022-09-03T02:58:28.372Z,18.50
2022-09-03T02:59:00.422Z,18.50
2022-09-03T02:59:32.529Z,18.50
2022-09-03T03:00:04.610Z,18.50
2022-09-03T03:00:35.135Z,18.50
2022-09-03T03:00:52.670Z,18.50
2022-09-03T03:01:24.510Z,18.50
2022-09-03T03:01:42.491Z,18.50
2022-09-03T03:02:13.778Z,18.50
2022-09-03T03:02:35.167Z,18.50
2022-09-03T03:03:00.314Z,18.50
2022-09-03T03:03:32.560Z,18.50
2022-09-03T03:04:04.787Z,18.50
2022-09-03T03:04:35.157Z,18.50
2022-09-03T03:04:52.660Z,18.50
2022-09-03T03:05:25.191Z,18.50
2022-09-03T03:05:44.626Z,18.50
2022-09-03T03:06:12.868Z,18.50
2022-09-03T03:06:37.016Z,18.50
2022-09-03T03:07:00.263Z,18.50
2022-09-03T03:07:32.589Z,18.50
2022-09-03T03:08:04.507Z,18.50
2022-09-03T03:08:35.222Z,18.50
2022-09-03T03:08:54.135Z,18.50
2022-09-03T03:09:25.493Z,18.50
2022-09-03T03:09:42.966Z,18.50
2022-09-03T03:10:12.942Z,18.50
2022-09-03T03:10:36.689Z,18.50
2022-09-03T03:11:00.263Z,18.50
2022-09-03T03:11:32.526Z,18.50
2022-09-03T03:12:04.583Z,18.50
2022-09-03T03:12:35.208Z,18.50
2022-09-03T03:12:52.713Z,18.50
2022-09-03T03:13:25.206Z,18.50
2022-09-03T03:13:42.697Z,18.50
2022-09-03T03:14:14.464Z,18.50
2022-09-03T03:14:36.360Z,18.50
2022-09-03T03:15:01.470Z,18.50
2022-09-03T03:15:32.584Z,18.50
2022-09-03T03:16:04.448Z,18.50
2022-09-03T03:16:35.852Z,18.50
2022-09-03T03:16:53.335Z,18.38
2022-09-03T03:17:25.040Z,18.38
2022-09-03T03:17:43.814Z,18.38
2022-09-03T03:18:12.739Z,18.38
2022-09-03T03:18:35.169Z,18.38
2022-09-03T03:19:04.180Z,18.38
2022-09-03T03:19:33.285Z,18.38
2022-09-03T03:20:04.554Z,18.38
2022-09-03T03:20:35.101Z,18.38
2022-09-03T03:20:52.714Z,18.38
2022-09-03T03:21:24.450Z,18.38
2022-09-03T03:21:42.105Z,18.38
2022-09-03T03:22:12.766Z,18.38
2022-09-03T03:22:36.124Z,18.38
2022-09-03T03:23:00.254Z,18.38
2022-09-03T03:23:32.581Z,18.38
2022-09-03T03:24:04.549Z,18.38
2022-09-03T03:24:35.194Z,18.38
2022-09-03T03:24:52.732Z,18.38
2022-09-03T03:25:25.076Z,18.38
2022-09-03T03:25:42.633Z,18.38
2022-09-03T03:26:12.739Z,18.38
2022-09-03T03:26:36.232Z,18.38
2022-09-03T03:27:00.382Z,18.27
2022-09-03T03:27:32.984Z,18.27
2022-09-03T03:28:04.410Z,18.27
2022-09-03T03:28:36.028Z,18.27
2022-09-03T03:29:08.442Z,18.27
2022-09-03T03:29:35.139Z,18.27
2022-09-03T03:29:56.306Z,18.27
2022-09-03T03:30:28.527Z,18.27
2022-09-03T03:31:00.394Z,18.38
2022-09-03T03:31:34.600Z,18.38
2022-09-03T03:32:04.365Z,18.38
2022-09-03T03:32:37.266Z,18.38
2022-09-03T03:33:08.676Z,18.38
2022-09-03T03:33:36.924Z,18.38
2022-09-03T03:33:56.282Z,18.38
2022-09-03T03:34:30.305Z,18.38
2022-09-03T03:35:01.326Z,18.38
2022-09-03T03:35:33.206Z,18.38
2022-09-03T03:36:04.416Z,18.38
2022-09-03T03:36:36.260Z,18.38
2022-09-03T03:37:08.368Z,18.38
2022-09-03T03:37:35.177Z,18.38
2022-09-03T03:37:58.825Z,18.27
2022-09-03T03:38:28.349Z,18.27
2022-09-03T03:39:00.311Z,18.27
2022-09-03T03:39:32.692Z,18.27
2022-09-03T03:40:04.511Z,18.27
2022-09-03T03:40:35.219Z,18.27
2022-09-03T03:40:52.811Z,18.27
2022-09-03T03:41:24.344Z,18.27
2022-09-03T03:41:41.678Z,18.27
2022-09-03T03:42:12.763Z,18.27
2022-09-03T03:42:35.090Z,18.27
2022-09-03T03:43:00.905Z,18.27
2022-09-03T03:43:32.563Z,18.27
2022-09-03T03:44:05.378Z,18.27
2022-09-03T03:44:36.209Z,18.27
2022-09-03T03:45:08.584Z,18.27
2022-09-03T03:45:35.150Z,18.27
2022-09-03T03:45:56.357Z,18.27
2022-09-03T03:46:29.108Z,18.22
2022-09-03T03:47:00.334Z,18.22
2022-09-03T03:47:33.169Z,18.22
2022-09-03T03:48:04.973Z,18.22
2022-09-03T03:48:35.131Z,18.22
2022-09-03T03:48:52.663Z,18.22
2022-09-03T03:49:24.354Z,18.22
2022-09-03T03:49:42.460Z,18.22
2022-09-03T03:50:12.719Z,18.22
2022-09-03T03:50:35.386Z,18.22
2022-09-03T03:51:00.497Z,18.22
2022-09-03T03:51:32.755Z,18.22
2022-09-03T03:52:04.400Z,18.22
2022-09-03T03:52:35.151Z,18.22
2022-09-03T03:53:09.225Z,18.11
2022-09-03T03:53:35.103Z,18.00
2022-09-03T03:53:56.264Z,18.00
2022-09-03T03:54:30.143Z,18.00
2022-09-03T03:55:00.467Z,18.00
2022-09-03T03:55:35.090Z,18.00
2022-09-03T03:56:05.402Z,17.88
2022-09-03T03:56:35.230Z,17.88
2022-09-03T03:57:08.546Z,17.88
2022-09-03T03:57:36.158Z,17.88
2022-09-03T03:57:57.431Z,17.88
2022-09-03T03:58:28.304Z,17.88
2022-09-03T03:59:00.356Z,17.88
2022-09-03T03:59:32.645Z,17.88
2022-09-03T04:00:05.521Z,17.88
2022-09-03T04:00:36.449Z,17.88
2022-09-03T04:01:08.492Z,17.88
2022-09-03T04:01:35.504Z,17.88
2022-09-03T04:01:57.365Z,17.88
2022-09-03T04:02:28.399Z,17.88
2022-09-03T04:03:00.296Z,17.88
2022-09-03T04:03:32.653Z,18.00
2022-09-03T04:04:04.609Z,18.00
2022-09-03T04:04:36.243Z,18.00
2022-09-03T04:05:09.406Z,18.00
2022-09-03T04:05:35.488Z,18.00
2022-09-03T04:05:56.495Z,18.00
2022-09-03T04:06:29.322Z,18.00
2022-09-03T04:07:00.240Z,18.00
2022-09-03T04:07:32.649Z,18.00
2022-09-03T04:08:04.398Z,18.00
2022-09-03T04:08:36.990Z,18.00
2022-09-03T04:09:08.809Z,18.00
2022-09-03T04:09:35.290Z,17.88
2022-09-03T04:09:56.365Z,17.88
2022-09-03T04:10:28.343Z,17.88
2022-09-03T04:11:00.349Z,17.88
2022-09-03T04:11:32.704Z,17.77
2022-09-03T04:12:04.577Z,17.77
2022-09-03T04:12:35.309Z,17.77
2022-09-03T04:12:52.695Z,17.77
2022-09-03T04:13:24.924Z,17.77
2022-09-03T04:13:42.449Z,17.77
2022-09-03T04:14:13.651Z,17.77
2022-09-03T04:14:35.977Z,17.77
2022-09-03T04:15:01.188Z,17.77
2022-09-03T04:15:32.640Z,17.77
2022-09-03T04:16:04.982Z,17.77
2022-09-03T04:16:35.227Z,17.77
2022-09-03T04:16:52.998Z,17.77
2022-09-03T04:17:25.412Z,17.77
2022-09-03T04:17:42.847Z,17.72
2022-09-03T04:18:12.767Z,17.72
2022-09-03T04:18:36.629Z,17.72
2022-09-03T04:19:00.315Z,17.72
2022-09-03T04:19:32.624Z,17.72
2022-09-03T04:20:04.450Z,17.72
2022-09-03T04:20:35.106Z,17.72
2022-09-03T04:20:53.408Z,17.72
2022-09-03T04:21:25.494Z,17.72
2022-09-03T04:21:44.088Z,17.72
2022-09-03T04:22:12.771Z,17.72
2022-09-03T04:22:35.195Z,17.72
2022-09-03T04:23:00.285Z,17.72
2022-09-03T04:23:32.898Z,17.72
2022-09-03T04:24:04.358Z,17.72
2022-09-03T04:24:35.113Z,17.72
2022-09-03T04:24:52.802Z,17.72
2022-09-03T04:25:24.398Z,17.72
2022-09-03T04:25:41.551Z,17.72
2022-09-03T04:26:12.695Z,17.72
2022-09-03T04:26:35.091Z,17.72
2022-09-03T04:27:00.362Z,17.72
2022-09-03T04:27:32.772Z,17.61
2022-09-03T04:28:04.366Z,17.61
2022-09-03T04:28:35.888Z,17.61
2022-09-03T04:29:08.504Z,17.61
2022-09-03T04:29:35.912Z,17.61
2022-09-03T04:29:56.232Z,17.61
2022-09-03T04:30:28.421Z,17.61
2022-09-03T04:31:00.496Z,17.61
2022-09-03T04:31:33.431Z,17.61
2022-09-03T04:32:04.417Z,17.61
2022-09-03T04:32:36.263Z,17.61
2022-09-03T04:33:08.421Z,17.61
2022-09-03T04:33:35.165Z,17.61
2022-09-03T04:33:56.281Z,17.61
2022-09-03T04:34:28.225Z,17.61
2022-09-03T04:35:00.493Z,17.61
2022-09-03T04:35:32.696Z,17.61
2022-09-03T04:36:04.428Z,17.61
2022-09-03T04:36:36.172Z,17.61
2022-09-03T04:37:08.378Z,17.61
2022-09-03T04:37:36.066Z,17.61
2022-09-03T04:37:56.261Z,17.72
2022-09-03T04:38:28.268Z,17.72
2022-09-03T04:39:01.062Z,17.72
2022-09-03T04:39:33.263Z,17.72
2022-09-03T04:40:04.954Z,17.72
2022-09-03T04:40:36.357Z,17.72
2022-09-03T04:41:08.368Z,17.72
2022-09-03T04:41:35.276Z,17.72
2022-09-03T04:41:56.250Z,17.77
2022-09-03T04:42:28.397Z,17.77
2022-09-03T04:43:01.118Z,17.77
2022-09-03T04:43:32.766Z,17.77
2022-09-03T04:44:05.073Z,17.77
2022-09-03T04:44:35.133Z,17.77
2022-09-03T04:44:52.762Z,17.77
2022-09-03T04:45:24.455Z,17.77
2022-09-03T04:45:41.643Z,17.88
2022-09-03T04:46:13.092Z,17.88
2022-09-03T04:46:35.123Z,17.88
2022-09-03T04:47:00.523Z,17.88
2022-09-03T04:47:32.582Z,17.88
2022-09-03T04:48:04.372Z,17.88
2022-09-03T04:48:37.764Z,17.88
2022-09-03T04:49:08.966Z,17.88
2022-09-03T04:49:36.156Z,17.88
2022-09-03T04:49:56.268Z,17.88
2022-09-03T04:50:28.303Z,17.88
2022-09-03T04:51:00.303Z,17.88
2022-09-03T04:51:32.813Z,17.88
2022-09-03T04:52:04.493Z,17.88
2022-09-03T04:52:35.071Z,17.88
2022-09-03T04:52:52.960Z,17.88
2022-09-03T04:53:24.427Z,17.88
2022-09-03T04:53:43.310Z,17.88
2022-09-03T04:54:13.185Z,17.88
2022-09-03T04:54:35.157Z,17.88
2022-09-03T04:55:00.655Z,17.88
2022-09-03T04:55:32.698Z,17.88
2022-09-03T04:56:04.332Z,17.88
2022-09-03T04:56:35.185Z,17.88
2022-09-03T04:56:52.992Z,17.88
2022-09-03T04:57:24.491Z,17.88
2022-09-03T04:57:56.209Z,17.88
2022-09-03T04:58:28.337Z,17.88
2022-09-03T04:59:01.382Z,17.77
2022-09-03T04:59:32.685Z,17.77
2022-09-03T05:00:04.803Z,17.77
2022-09-03T05:00:35.112Z,17.77
2022-09-03T05:00:52.807Z,17.77
2022-09-03T05:01:24.810Z,17.77
2022-09-03T05:01:41.823Z,17.77
2022-09-03T05:02:14.702Z,17.88
2022-09-03T05:02:35.328Z,17.88
2022-09-03T05:03:00.378Z,17.88
2022-09-03T05:03:32.871Z,17.88
2022-09-03T05:04:04.885Z,17.88
2022-09-03T05:04:36.833Z,17.88
2022-09-03T05:05:08.769Z,17.88
2022-09-03T05:05:35.345Z,17.88
2022-09-03T05:05:59.133Z,18.00
2022-09-03T05:06:29.450Z,18.00
2022-09-03T05:07:00.583Z,18.00
2022-09-03T05:07:33.125Z,17.88
2022-09-03T05:08:04.566Z,17.77
2022-09-03T05:08:35.287Z,17.77
2022-09-03T05:08:52.849Z,17.77
2022-09-03T05:09:25.278Z,17.77
2022-09-03T05:09:43.355Z,17.77
2022-09-03T05:10:13.070Z,17.88
2022-09-03T05:10:35.241Z,17.88
2022-09-03T05:11:00.443Z,17.88
2022-09-03T05:11:32.967Z,17.88
2022-09-03T05:12:04.645Z,17.88
2022-09-03T05:12:35.523Z,17.88
2022-09-03T05:12:52.894Z,17.88
2022-09-03T05:13:24.597Z,17.88
2022-09-03T05:13:42.794Z,17.88
2022-09-03T05:14:13.846Z,17.88
2022-09-03T05:14:35.254Z,17.88
2022-09-03T05:15:00.939Z,18.00
2022-09-03T05:15:33.009Z,18.00
2022-09-03T05:16:04.719Z,18.00
2022-09-03T05:16:35.463Z,18.00
2022-09-03T05:17:08.614Z,18.11
2022-09-03T05:17:37.786Z,18.11
2022-09-03T05:17:57.197Z,18.11
2022-09-03T05:18:28.419Z,18.11
2022-09-03T05:19:00.492Z,18.11
2022-09-03T05:19:34.877Z,18.11
2022-09-03T05:20:05.454Z,18.11
2022-09-03T05:20:35.715Z,18.11
2022-09-03T05:20:52.811Z,18.11
2022-09-03T05:21:24.719Z,18.11
2022-09-03T05:21:56.738Z,18.11
2022-09-03T05:22:28.435Z,18.11
2022-09-03T05:23:00.548Z,18.11
2022-09-03T05:23:37.462Z,18.22
2022-09-03T05:24:04.559Z,18.22
2022-09-03T05:24:35.973Z,18.22
2022-09-03T05:24:53.910Z,18.22
2022-09-03T05:25:24.672Z,18.22
2022-09-03T05:25:42.000Z,18.22
2022-09-03T05:26:13.220Z,18.22
2022-09-03T05:26:38.304Z,18.22
2022-09-03T05:27:01.003Z,18.22
2022-09-03T05:27:32.941Z,18.22
2022-09-03T05:28:06.448Z,18.22
2022-09-03T05:28:35.331Z,18.22
2022-09-03T05:29:08.984Z,18.11
2022-09-03T05:29:36.655Z,18.11
2022-09-03T05:29:56.326Z,18.11
2022-09-03T05:30:28.648Z,18.11
2022-09-03T05:31:02.880Z,18.00
2022-09-03T05:31:33.096Z,18.00
2022-09-03T05:32:04.679Z,18.00
2022-09-03T05:32:36.941Z,17.88
2022-09-03T05:33:08.601Z,17.88
2022-09-03T05:33:35.284Z,17.88
2022-09-03T05:33:56.332Z,17.88
2022-09-03T05:34:28.392Z,17.88
2022-09-03T05:35:01.273Z,17.88
2022-09-03T05:35:34.269Z,17.88
2022-09-03T05:36:04.624Z,18.00
2022-09-03T05:36:35.314Z,18.00
2022-09-03T05:36:53.063Z,18.00
2022-09-03T05:37:24.572Z,18.00
2022-09-03T05:37:43.011Z,18.00
2022-09-03T05:38:13.399Z,18.00
2022-09-03T05:38:35.338Z,18.00
2022-09-03T05:39:01.580Z,18.00
2022-09-03T05:39:32.939Z,18.00
2022-09-03T05:40:06.180Z,17.88
2022-09-03T05:40:35.515Z,17.88
2022-09-03T05:40:53.546Z,17.88
2022-09-03T05:41:24.596Z,17.88
2022-09-03T05:41:41.691Z,17.88
2022-09-03T05:42:13.558Z,17.88
2022-09-03T05:42:35.638Z,17.88
2022-09-03T05:43:00.328Z,17.88
2022-09-03T05:43:32.821Z,17.88
2022-09-03T05:44:05.275Z,17.88
2022-09-03T05:44:36.923Z,17.88
2022-09-03T05:45:09.273Z,17.88
2022-09-03T05:45:36.496Z,17.88
2022-09-03T05:45:56.474Z,17.88
2022-09-03T05:46:28.395Z,17.88
2022-09-03T05:47:01.248Z,17.88
2022-09-03T05:47:32.810Z,17.88
2022-09-03T05:48:04.824Z,17.88
2022-09-03T05:48:35.302Z,17.88
2022-09-03T05:48:53.010Z,17.88
2022-09-03T05:49:24.520Z,17.88
2022-09-03T05:49:41.629Z,17.77
2022-09-03T05:50:14.352Z,17.72
2022-09-03T05:50:36.307Z,17.61
2022-09-03T05:51:00.285Z,17.61
2022-09-03T05:51:32.795Z,17.38
2022-09-03T05:52:04.610Z,17.27
2022-09-03T05:52:36.223Z,17.22
2022-09-03T05:53:08.733Z,17.11
2022-09-03T05:53:35.419Z,17.11
2022-09-03T05:53:56.377Z,17.11
2022-09-03T05:54:30.993Z,16.88
2022-09-03T05:55:00.794Z,16.77
2022-09-03T05:55:32.757Z,16.77
2022-09-03T05:56:04.886Z,16.72
2022-09-03T05:56:35.357Z,16.61
2022-09-03T05:56:53.173Z,16.38
2022-09-03T05:57:24.507Z,16.27